sensor_id;sensor_type;location;lat;lon;timestamp;P1;durP1;ratioP1;P2;durP2;ratioP2
15488;SDS011;7846;48.830;9.116;2023-02-28T00:00:47;2.23;;;1.87;;
15488;SDS011;7846;48.830;9.116;2023-02-28T00:03:13;2.70;;;1.80;;
15488;SDS011;7846;48.830;9.116;2023-02-28T00:05:38;1.80;;;1.70;;
15488;SDS011;7846;48.830;9.116;2023-02-28T00:08:04;1.60;;;1.50;;
15488;SDS011;7846;48.830;9.116;2023-02-28T00:10:30;1.77;;;1.67;;
15488;SDS011;7846;48.830;9.116;2023-02-28T00:13:01;1.98;;;1.75;;
15488;SDS011;7846;48.830;9.116;2023-02-28T00:15:29;2.73;;;1.90;;
15488;SDS011;7846;48.830;9.116;2023-02-28T00:17:54;2.13;;;1.80;;
15488;SDS011;7846;48.830;9.116;2023-02-28T00:20:20;2.17;;;1.80;;
15488;SDS011;7846;48.830;9.116;2023-02-28T00:22:46;1.70;;;1.60;;
15488;SDS011;7846;48.830;9.116;2023-02-28T00:25:15;2.38;;;1.98;;
15488;SDS011;7846;48.830;9.116;2023-02-28T00:27:46;1.90;;;1.80;;
15488;SDS011;7846;48.830;9.116;2023-02-28T00:30:15;2.85;;;2.20;;
15488;SDS011;7846;48.830;9.116;2023-02-28T00:32:42;2.50;;;2.10;;
15488;SDS011;7846;48.830;9.116;2023-02-28T00:35:09;2.20;;;1.95;;
15488;SDS011;7846;48.830;9.116;2023-02-28T00:37:35;2.25;;;1.70;;
15488;SDS011;7846;48.830;9.116;2023-02-28T00:40:01;2.57;;;2.07;;
15488;SDS011;7846;48.830;9.116;2023-02-28T00:42:29;2.53;;;1.97;;
15488;SDS011;7846;48.830;9.116;2023-02-28T00:44:55;2.20;;;2.00;;
15488;SDS011;7846;48.830;9.116;2023-02-28T00:47:20;2.10;;;1.90;;
15488;SDS011;7846;48.830;9.116;2023-02-28T00:49:46;2.53;;;1.90;;
15488;SDS011;7846;48.830;9.116;2023-02-28T00:52:13;2.08;;;1.95;;
15488;SDS011;7846;48.830;9.116;2023-02-28T00:54:39;2.53;;;1.85;;
15488;SDS011;7846;48.830;9.116;2023-02-28T00:57:05;2.25;;;2.05;;
15488;SDS011;7846;48.830;9.116;2023-02-28T00:59:31;2.37;;;1.97;;
15488;SDS011;7846;48.830;9.116;2023-02-28T01:01:58;3.30;;;2.05;;
15488;SDS011;7846;48.830;9.116;2023-02-28T01:04:23;3.80;;;2.20;;
15488;SDS011;7846;48.830;9.116;2023-02-28T01:06:49;3.40;;;2.30;;
15488;SDS011;7846;48.830;9.116;2023-02-28T01:09:16;2.40;;;2.20;;
15488;SDS011;7846;48.830;9.116;2023-02-28T01:11:43;2.10;;;1.90;;
15488;SDS011;7846;48.830;9.116;2023-02-28T01:14:11;2.90;;;2.33;;
15488;SDS011;7846;48.830;9.116;2023-02-28T01:16:38;2.47;;;2.28;;
15488;SDS011;7846;48.830;9.116;2023-02-28T01:19:04;3.13;;;2.20;;
15488;SDS011;7846;48.830;9.116;2023-02-28T01:21:30;2.93;;;2.20;;
15488;SDS011;7846;48.830;9.116;2023-02-28T01:23:56;3.20;;;2.50;;
15488;SDS011;7846;48.830;9.116;2023-02-28T01:26:22;2.50;;;2.30;;
15488;SDS011;7846;48.830;9.116;2023-02-28T01:28:48;2.70;;;2.37;;
15488;SDS011;7846;48.830;9.116;2023-02-28T01:31:15;2.72;;;2.40;;
15488;SDS011;7846;48.830;9.116;2023-02-28T01:33:41;3.13;;;2.50;;
15488;SDS011;7846;48.830;9.116;2023-02-28T01:36:09;2.70;;;2.33;;
15488;SDS011;7846;48.830;9.116;2023-02-28T01:38:37;2.75;;;2.38;;
15488;SDS011;7846;48.830;9.116;2023-02-28T01:41:03;5.03;;;2.80;;
15488;SDS011;7846;48.830;9.116;2023-02-28T01:43:32;3.97;;;2.60;;
15488;SDS011;7846;48.830;9.116;2023-02-28T01:46:13;2.40;;;2.10;;
15488;SDS011;7846;48.830;9.116;2023-02-28T01:48:44;2.57;;;2.37;;
15488;SDS011;7846;48.830;9.116;2023-02-28T01:51:18;4.20;;;2.47;;
15488;SDS011;7846;48.830;9.116;2023-02-28T01:53:56;3.85;;;2.50;;
15488;SDS011;7846;48.830;9.116;2023-02-28T01:56:29;3.83;;;2.60;;
15488;SDS011;7846;48.830;9.116;2023-02-28T01:58:57;2.95;;;2.63;;
15488;SDS011;7846;48.830;9.116;2023-02-28T02:01:23;3.10;;;2.70;;
15488;SDS011;7846;48.830;9.116;2023-02-28T02:03:53;2.80;;;2.60;;
15488;SDS011;7846;48.830;9.116;2023-02-28T02:06:44;2.72;;;2.42;;
15488;SDS011;7846;48.830;9.116;2023-02-28T02:09:09;3.42;;;2.75;;
15488;SDS011;7846;48.830;9.116;2023-02-28T02:11:35;2.90;;;2.40;;
15488;SDS011;7846;48.830;9.116;2023-02-28T02:14:11;3.20;;;2.60;;
15488;SDS011;7846;48.830;9.116;2023-02-28T02:22:48;3.33;;;2.93;;
15488;SDS011;7846;48.830;9.116;2023-02-28T02:34:08;3.67;;;2.87;;
15488;SDS011;7846;48.830;9.116;2023-02-28T02:36:51;2.83;;;2.57;;
15488;SDS011;7846;48.830;9.116;2023-02-28T02:39:38;2.70;;;2.50;;
15488;SDS011;7846;48.830;9.116;2023-02-28T02:42:14;3.65;;;3.00;;
15488;SDS011;7846;48.830;9.116;2023-02-28T02:44:47;3.77;;;2.77;;
15488;SDS011;7846;48.830;9.116;2023-02-28T02:47:16;3.47;;;2.70;;
15488;SDS011;7846;48.830;9.116;2023-02-28T02:49:47;3.55;;;2.80;;
15488;SDS011;7846;48.830;9.116;2023-02-28T02:52:16;4.38;;;2.80;;
15488;SDS011;7846;48.830;9.116;2023-02-28T02:54:46;3.60;;;2.63;;
15488;SDS011;7846;48.830;9.116;2023-02-28T02:57:22;2.70;;;2.50;;
15488;SDS011;7846;48.830;9.116;2023-02-28T02:59:53;3.97;;;2.80;;
15488;SDS011;7846;48.830;9.116;2023-02-28T03:02:20;2.67;;;2.47;;
15488;SDS011;7846;48.830;9.116;2023-02-28T03:04:56;3.10;;;2.70;;
15488;SDS011;7846;48.830;9.116;2023-02-28T03:07:27;3.53;;;3.20;;
15488;SDS011;7846;48.830;9.116;2023-02-28T03:09:54;3.30;;;3.00;;
15488;SDS011;7846;48.830;9.116;2023-02-28T03:12:21;3.40;;;3.10;;
15488;SDS011;7846;48.830;9.116;2023-02-28T03:20:45;3.17;;;2.87;;
15488;SDS011;7846;48.830;9.116;2023-02-28T03:23:31;3.57;;;3.03;;
15488;SDS011;7846;48.830;9.116;2023-02-28T03:26:12;4.10;;;3.10;;
15488;SDS011;7846;48.830;9.116;2023-02-28T03:28:49;3.83;;;3.20;;
15488;SDS011;7846;48.830;9.116;2023-02-28T03:33:50;4.33;;;3.00;;
15488;SDS011;7846;48.830;9.116;2023-02-28T03:36:30;3.40;;;3.10;;
15488;SDS011;7846;48.830;9.116;2023-02-28T03:39:05;3.10;;;2.80;;
15488;SDS011;7846;48.830;9.116;2023-02-28T03:41:38;4.43;;;3.08;;
15488;SDS011;7846;48.830;9.116;2023-02-28T03:44:17;4.10;;;3.13;;
15488;SDS011;7846;48.830;9.116;2023-02-28T03:49:59;3.60;;;3.23;;
15488;SDS011;7846;48.830;9.116;2023-02-28T03:52:32;3.57;;;3.23;;
15488;SDS011;7846;48.830;9.116;2023-02-28T03:55:01;5.37;;;3.10;;
15488;SDS011;7846;48.830;9.116;2023-02-28T03:57:34;3.80;;;3.40;;
15488;SDS011;7846;48.830;9.116;2023-02-28T04:00:20;3.33;;;3.03;;
15488;SDS011;7846;48.830;9.116;2023-02-28T04:02:53;3.20;;;2.90;;
15488;SDS011;7846;48.830;9.116;2023-02-28T04:05:19;3.57;;;3.03;;
15488;SDS011;7846;48.830;9.116;2023-02-28T04:07:46;3.10;;;2.90;;
15488;SDS011;7846;48.830;9.116;2023-02-28T04:10:11;3.53;;;2.70;;
15488;SDS011;7846;48.830;9.116;2023-02-28T04:12:37;3.67;;;3.37;;
15488;SDS011;7846;48.830;9.116;2023-02-28T04:15:04;4.20;;;3.30;;
15488;SDS011;7846;48.830;9.116;2023-02-28T04:17:30;4.53;;;3.30;;
15488;SDS011;7846;48.830;9.116;2023-02-28T04:19:55;3.93;;;3.27;;
15488;SDS011;7846;48.830;9.116;2023-02-28T04:22:22;3.90;;;3.47;;
15488;SDS011;7846;48.830;9.116;2023-02-28T04:24:50;3.73;;;3.13;;
15488;SDS011;7846;48.830;9.116;2023-02-28T04:27:17;3.33;;;2.95;;
15488;SDS011;7846;48.830;9.116;2023-02-28T04:29:43;3.53;;;3.00;;
15488;SDS011;7846;48.830;9.116;2023-02-28T04:32:09;3.80;;;3.20;;
15488;SDS011;7846;48.830;9.116;2023-02-28T04:34:35;3.37;;;3.10;;
15488;SDS011;7846;48.830;9.116;2023-02-28T04:37:01;4.23;;;3.27;;
15488;SDS011;7846;48.830;9.116;2023-02-28T04:39:28;4.40;;;3.60;;
15488;SDS011;7846;48.830;9.116;2023-02-28T04:41:53;3.50;;;3.20;;
15488;SDS011;7846;48.830;9.116;2023-02-28T04:44:18;3.57;;;3.27;;
15488;SDS011;7846;48.830;9.116;2023-02-28T04:46:45;3.53;;;3.23;;
15488;SDS011;7846;48.830;9.116;2023-02-28T04:49:13;4.03;;;3.47;;
15488;SDS011;7846;48.830;9.116;2023-02-28T04:51:39;4.77;;;3.30;;
15488;SDS011;7846;48.830;9.116;2023-02-28T04:54:04;4.53;;;3.60;;
15488;SDS011;7846;48.830;9.116;2023-02-28T04:56:30;4.13;;;3.50;;
15488;SDS011;7846;48.830;9.116;2023-02-28T04:58:55;5.00;;;3.43;;
15488;SDS011;7846;48.830;9.116;2023-02-28T05:01:25;3.57;;;3.27;;
15488;SDS011;7846;48.830;9.116;2023-02-28T05:03:53;3.70;;;3.30;;
15488;SDS011;7846;48.830;9.116;2023-02-28T05:06:22;4.50;;;3.90;;
15488;SDS011;7846;48.830;9.116;2023-02-28T05:08:49;3.93;;;3.50;;
15488;SDS011;7846;48.830;9.116;2023-02-28T05:11:16;4.20;;;3.77;;
15488;SDS011;7846;48.830;9.116;2023-02-28T05:13:44;3.90;;;3.50;;
15488;SDS011;7846;48.830;9.116;2023-02-28T05:16:10;3.53;;;3.23;;
15488;SDS011;7846;48.830;9.116;2023-02-28T05:18:35;4.07;;;3.67;;
15488;SDS011;7846;48.830;9.116;2023-02-28T05:21:01;4.47;;;3.93;;
15488;SDS011;7846;48.830;9.116;2023-02-28T05:23:27;4.30;;;3.90;;
15488;SDS011;7846;48.830;9.116;2023-02-28T05:25:52;5.03;;;3.63;;
15488;SDS011;7846;48.830;9.116;2023-02-28T05:28:18;4.23;;;3.83;;
15488;SDS011;7846;48.830;9.116;2023-02-28T05:30:44;4.77;;;3.90;;
15488;SDS011;7846;48.830;9.116;2023-02-28T05:33:10;4.57;;;3.70;;
15488;SDS011;7846;48.830;9.116;2023-02-28T05:35:37;4.93;;;3.60;;
15488;SDS011;7846;48.830;9.116;2023-02-28T05:38:04;4.63;;;3.77;;
15488;SDS011;7846;48.830;9.116;2023-02-28T05:40:29;4.47;;;3.93;;
15488;SDS011;7846;48.830;9.116;2023-02-28T05:42:55;4.53;;;3.37;;
15488;SDS011;7846;48.830;9.116;2023-02-28T05:45:21;4.03;;;3.63;;
15488;SDS011;7846;48.830;9.116;2023-02-28T05:47:47;4.30;;;3.90;;
15488;SDS011;7846;48.830;9.116;2023-02-28T05:50:14;4.80;;;3.90;;
15488;SDS011;7846;48.830;9.116;2023-02-28T05:52:39;5.87;;;4.73;;
15488;SDS011;7846;48.830;9.116;2023-02-28T05:55:05;7.20;;;4.80;;
15488;SDS011;7846;48.830;9.116;2023-02-28T05:57:31;5.37;;;3.70;;
15488;SDS011;7846;48.830;9.116;2023-02-28T05:59:57;5.70;;;4.37;;
15488;SDS011;7846;48.830;9.116;2023-02-28T06:02:22;4.43;;;4.03;;
15488;SDS011;7846;48.830;9.116;2023-02-28T06:04:48;4.50;;;3.70;;
15488;SDS011;7846;48.830;9.116;2023-02-28T06:07:14;5.10;;;4.10;;
15488;SDS011;7846;48.830;9.116;2023-02-28T06:09:40;4.63;;;4.23;;
15488;SDS011;7846;48.830;9.116;2023-02-28T06:12:07;4.03;;;3.67;;
15488;SDS011;7846;48.830;9.116;2023-02-28T06:14:35;4.97;;;4.13;;
15488;SDS011;7846;48.830;9.116;2023-02-28T06:17:01;5.27;;;3.73;;
15488;SDS011;7846;48.830;9.116;2023-02-28T06:19:28;5.73;;;4.07;;
15488;SDS011;7846;48.830;9.116;2023-02-28T06:21:58;5.30;;;4.10;;
15488;SDS011;7846;48.830;9.116;2023-02-28T06:24:25;5.30;;;3.97;;
15488;SDS011;7846;48.830;9.116;2023-02-28T06:26:52;4.40;;;4.00;;
15488;SDS011;7846;48.830;9.116;2023-02-28T06:29:18;4.43;;;4.03;;
15488;SDS011;7846;48.830;9.116;2023-02-28T06:31:44;4.90;;;4.40;;
15488;SDS011;7846;48.830;9.116;2023-02-28T06:34:11;5.07;;;4.57;;
15488;SDS011;7846;48.830;9.116;2023-02-28T06:36:37;4.90;;;4.23;;
15488;SDS011;7846;48.830;9.116;2023-02-28T06:39:04;5.23;;;4.00;;
15488;SDS011;7846;48.830;9.116;2023-02-28T06:41:29;4.90;;;4.40;;
15488;SDS011;7846;48.830;9.116;2023-02-28T06:43:55;4.40;;;3.93;;
15488;SDS011;7846;48.830;9.116;2023-02-28T06:46:22;5.47;;;4.33;;
15488;SDS011;7846;48.830;9.116;2023-02-28T06:48:49;4.73;;;4.07;;
15488;SDS011;7846;48.830;9.116;2023-02-28T06:51:16;5.50;;;4.53;;
15488;SDS011;7846;48.830;9.116;2023-02-28T06:53:45;5.20;;;4.13;;
15488;SDS011;7846;48.830;9.116;2023-02-28T06:56:11;6.13;;;4.50;;
15488;SDS011;7846;48.830;9.116;2023-02-28T06:58:38;5.00;;;4.00;;
15488;SDS011;7846;48.830;9.116;2023-02-28T07:01:05;4.53;;;4.13;;
15488;SDS011;7846;48.830;9.116;2023-02-28T07:03:31;5.87;;;4.30;;
15488;SDS011;7846;48.830;9.116;2023-02-28T07:05:57;4.50;;;4.10;;
15488;SDS011;7846;48.830;9.116;2023-02-28T07:08:24;4.63;;;4.20;;
15488;SDS011;7846;48.830;9.116;2023-02-28T07:10:53;5.33;;;4.60;;
15488;SDS011;7846;48.830;9.116;2023-02-28T07:13:19;5.33;;;4.43;;
15488;SDS011;7846;48.830;9.116;2023-02-28T07:15:53;6.83;;;4.93;;
15488;SDS011;7846;48.830;9.116;2023-02-28T07:18:21;6.13;;;4.40;;
15488;SDS011;7846;48.830;9.116;2023-02-28T07:20:46;5.07;;;4.53;;
15488;SDS011;7846;48.830;9.116;2023-02-28T07:23:13;6.03;;;4.90;;
15488;SDS011;7846;48.830;9.116;2023-02-28T07:25:38;5.40;;;4.30;;
15488;SDS011;7846;48.830;9.116;2023-02-28T07:28:04;6.93;;;4.90;;
15488;SDS011;7846;48.830;9.116;2023-02-28T07:30:30;5.93;;;4.60;;
15488;SDS011;7846;48.830;9.116;2023-02-28T07:32:55;5.53;;;4.43;;
15488;SDS011;7846;48.830;9.116;2023-02-28T07:35:21;7.47;;;4.87;;
15488;SDS011;7846;48.830;9.116;2023-02-28T07:37:46;5.83;;;4.43;;
15488;SDS011;7846;48.830;9.116;2023-02-28T07:40:13;5.10;;;4.60;;
15488;SDS011;7846;48.830;9.116;2023-02-28T07:42:40;6.60;;;4.67;;
15488;SDS011;7846;48.830;9.116;2023-02-28T07:45:06;5.23;;;4.73;;
15488;SDS011;7846;48.830;9.116;2023-02-28T07:47:34;6.60;;;5.10;;
15488;SDS011;7846;48.830;9.116;2023-02-28T07:50:00;6.60;;;4.83;;
15488;SDS011;7846;48.830;9.116;2023-02-28T07:52:25;5.57;;;5.03;;
15488;SDS011;7846;48.830;9.116;2023-02-28T07:54:52;6.67;;;4.80;;
15488;SDS011;7846;48.830;9.116;2023-02-28T07:57:17;5.80;;;4.47;;
15488;SDS011;7846;48.830;9.116;2023-02-28T07:59:43;4.90;;;4.17;;
15488;SDS011;7846;48.830;9.116;2023-02-28T08:02:12;5.77;;;4.87;;
15488;SDS011;7846;48.830;9.116;2023-02-28T08:04:39;7.40;;;4.70;;
15488;SDS011;7846;48.830;9.116;2023-02-28T08:07:05;5.87;;;4.67;;
15488;SDS011;7846;48.830;9.116;2023-02-28T08:09:32;5.83;;;4.83;;
15488;SDS011;7846;48.830;9.116;2023-02-28T08:11:58;6.33;;;4.53;;
15488;SDS011;7846;48.830;9.116;2023-02-28T08:14:25;6.83;;;5.20;;
15488;SDS011;7846;48.830;9.116;2023-02-28T08:16:50;5.83;;;4.40;;
15488;SDS011;7846;48.830;9.116;2023-02-28T08:19:16;6.63;;;4.50;;
15488;SDS011;7846;48.830;9.116;2023-02-28T08:21:41;5.10;;;4.60;;
15488;SDS011;7846;48.830;9.116;2023-02-28T08:24:08;7.90;;;4.83;;
15488;SDS011;7846;48.830;9.116;2023-02-28T08:26:33;6.90;;;4.70;;
15488;SDS011;7846;48.830;9.116;2023-02-28T08:28:58;6.43;;;5.27;;
15488;SDS011;7846;48.830;9.116;2023-02-28T08:31:26;6.73;;;4.93;;
15488;SDS011;7846;48.830;9.116;2023-02-28T08:33:51;5.47;;;4.80;;
15488;SDS011;7846;48.830;9.116;2023-02-28T08:36:19;5.50;;;4.90;;
15488;SDS011;7846;48.830;9.116;2023-02-28T08:38:45;5.37;;;4.67;;
15488;SDS011;7846;48.830;9.116;2023-02-28T08:41:11;5.57;;;4.80;;
15488;SDS011;7846;48.830;9.116;2023-02-28T08:43:37;5.33;;;4.83;;
15488;SDS011;7846;48.830;9.116;2023-02-28T08:46:04;6.87;;;5.80;;
15488;SDS011;7846;48.830;9.116;2023-02-28T08:48:30;7.30;;;5.43;;
15488;SDS011;7846;48.830;9.116;2023-02-28T08:50:58;5.97;;;5.27;;
15488;SDS011;7846;48.830;9.116;2023-02-28T08:53:28;6.30;;;5.70;;
15488;SDS011;7846;48.830;9.116;2023-02-28T08:55:58;5.70;;;5.10;;
15488;SDS011;7846;48.830;9.116;2023-02-28T08:58:24;7.10;;;5.07;;
15488;SDS011;7846;48.830;9.116;2023-02-28T09:00:51;6.37;;;5.77;;
15488;SDS011;7846;48.830;9.116;2023-02-28T09:03:16;7.30;;;5.20;;
15488;SDS011;7846;48.830;9.116;2023-02-28T09:05:51;6.03;;;5.30;;
15488;SDS011;7846;48.830;9.116;2023-02-28T09:08:20;7.67;;;5.47;;
15488;SDS011;7846;48.830;9.116;2023-02-28T09:10:45;6.50;;;5.33;;
15488;SDS011;7846;48.830;9.116;2023-02-28T09:13:11;6.90;;;5.60;;
15488;SDS011;7846;48.830;9.116;2023-02-28T09:15:37;7.10;;;5.80;;
15488;SDS011;7846;48.830;9.116;2023-02-28T09:18:03;6.40;;;5.17;;
15488;SDS011;7846;48.830;9.116;2023-02-28T09:20:28;6.13;;;5.40;;
15488;SDS011;7846;48.830;9.116;2023-02-28T09:22:54;5.97;;;5.33;;
15488;SDS011;7846;48.830;9.116;2023-02-28T09:25:19;6.47;;;5.63;;
15488;SDS011;7846;48.830;9.116;2023-02-28T09:27:45;5.87;;;5.27;;
15488;SDS011;7846;48.830;9.116;2023-02-28T09:30:10;7.00;;;6.23;;
15488;SDS011;7846;48.830;9.116;2023-02-28T09:32:36;6.93;;;5.63;;
15488;SDS011;7846;48.830;9.116;2023-02-28T09:35:02;6.00;;;5.40;;
15488;SDS011;7846;48.830;9.116;2023-02-28T09:37:27;6.40;;;5.63;;
15488;SDS011;7846;48.830;9.116;2023-02-28T09:39:54;6.83;;;5.30;;
15488;SDS011;7846;48.830;9.116;2023-02-28T09:42:21;6.53;;;5.83;;
15488;SDS011;7846;48.830;9.116;2023-02-28T09:44:53;7.80;;;5.60;;
15488;SDS011;7846;48.830;9.116;2023-02-28T09:49:56;6.37;;;5.77;;
15488;SDS011;7846;48.830;9.116;2023-02-28T09:52:29;7.00;;;5.90;;
15488;SDS011;7846;48.830;9.116;2023-02-28T09:55:00;6.57;;;5.97;;
15488;SDS011;7846;48.830;9.116;2023-02-28T09:57:39;6.67;;;5.90;;
15488;SDS011;7846;48.830;9.116;2023-02-28T10:02:52;7.87;;;6.07;;
15488;SDS011;7846;48.830;9.116;2023-02-28T10:05:41;6.53;;;5.47;;
15488;SDS011;7846;48.830;9.116;2023-02-28T10:08:16;6.07;;;5.20;;
15488;SDS011;7846;48.830;9.116;2023-02-28T10:10:51;6.27;;;5.67;;
15488;SDS011;7846;48.830;9.116;2023-02-28T10:13:31;6.27;;;5.67;;
15488;SDS011;7846;48.830;9.116;2023-02-28T10:16:01;7.00;;;5.80;;
15488;SDS011;7846;48.830;9.116;2023-02-28T10:18:38;6.37;;;5.77;;
15488;SDS011;7846;48.830;9.116;2023-02-28T10:23:45;6.83;;;6.00;;
15488;SDS011;7846;48.830;9.116;2023-02-28T10:26:13;7.40;;;5.83;;
15488;SDS011;7846;48.830;9.116;2023-02-28T10:28:43;6.60;;;6.00;;
15488;SDS011;7846;48.830;9.116;2023-02-28T10:31:11;7.07;;;5.90;;
15488;SDS011;7846;48.830;9.116;2023-02-28T10:33:42;6.20;;;5.60;;
15488;SDS011;7846;48.830;9.116;2023-02-28T10:36:08;6.67;;;5.97;;
15488;SDS011;7846;48.830;9.116;2023-02-28T10:38:38;7.10;;;5.90;;
15488;SDS011;7846;48.830;9.116;2023-02-28T10:43:38;7.87;;;6.03;;
15488;SDS011;7846;48.830;9.116;2023-02-28T10:48:38;11.10;;;6.10;;
15488;SDS011;7846;48.830;9.116;2023-02-28T10:51:12;6.83;;;6.13;;
15488;SDS011;7846;48.830;9.116;2023-02-28T10:53:45;7.00;;;6.30;;
15488;SDS011;7846;48.830;9.116;2023-02-28T10:56:15;7.07;;;6.37;;
15488;SDS011;7846;48.830;9.116;2023-02-28T10:58:50;8.20;;;6.23;;
15488;SDS011;7846;48.830;9.116;2023-02-28T11:01:17;6.93;;;6.23;;
15488;SDS011;7846;48.830;9.116;2023-02-28T11:03:59;7.30;;;6.53;;
15488;SDS011;7846;48.830;9.116;2023-02-28T11:06:26;6.73;;;6.03;;
15488;SDS011;7846;48.830;9.116;2023-02-28T11:08:58;6.90;;;6.20;;
15488;SDS011;7846;48.830;9.116;2023-02-28T11:11:27;6.77;;;5.97;;
15488;SDS011;7846;48.830;9.116;2023-02-28T11:13:57;7.27;;;6.17;;
15488;SDS011;7846;48.830;9.116;2023-02-28T11:16:33;9.50;;;6.23;;
15488;SDS011;7846;48.830;9.116;2023-02-28T11:19:02;7.07;;;6.40;;
15488;SDS011;7846;48.830;9.116;2023-02-28T11:21:34;7.20;;;6.50;;
15488;SDS011;7846;48.830;9.116;2023-02-28T11:24:26;7.70;;;6.20;;
15488;SDS011;7846;48.830;9.116;2023-02-28T11:26:54;7.30;;;6.00;;
15488;SDS011;7846;48.830;9.116;2023-02-28T11:29:25;7.10;;;6.40;;
15488;SDS011;7846;48.830;9.116;2023-02-28T11:32:11;7.30;;;6.60;;
15488;SDS011;7846;48.830;9.116;2023-02-28T11:34:41;7.30;;;6.10;;
15488;SDS011;7846;48.830;9.116;2023-02-28T11:37:11;7.77;;;6.77;;
15488;SDS011;7846;48.830;9.116;2023-02-28T11:39:44;6.50;;;5.90;;
15488;SDS011;7846;48.830;9.116;2023-02-28T11:45:22;6.70;;;5.87;;
15488;SDS011;7846;48.830;9.116;2023-02-28T11:51:21;7.07;;;6.37;;
15488;SDS011;7846;48.830;9.116;2023-02-28T11:54:04;7.00;;;6.40;;
15488;SDS011;7846;48.830;9.116;2023-02-28T11:56:48;7.23;;;6.53;;
15488;SDS011;7846;48.830;9.116;2023-02-28T12:02:04;8.43;;;6.40;;
15488;SDS011;7846;48.830;9.116;2023-02-28T12:13:46;6.80;;;6.20;;
15488;SDS011;7846;48.830;9.116;2023-02-28T12:16:23;7.53;;;6.50;;
15488;SDS011;7846;48.830;9.116;2023-02-28T12:19:10;7.33;;;6.63;;
15488;SDS011;7846;48.830;9.116;2023-02-28T12:27:33;7.37;;;6.67;;
15488;SDS011;7846;48.830;9.116;2023-02-28T12:30:08;7.07;;;5.83;;
15488;SDS011;7846;48.830;9.116;2023-02-28T12:33:06;7.10;;;5.63;;
15488;SDS011;7846;48.830;9.116;2023-02-28T12:35:51;6.70;;;6.10;;
15488;SDS011;7846;48.830;9.116;2023-02-28T12:41:05;6.67;;;6.07;;
15488;SDS011;7846;48.830;9.116;2023-02-28T12:43:43;7.83;;;6.47;;
15488;SDS011;7846;48.830;9.116;2023-02-28T12:46:15;7.27;;;6.53;;
15488;SDS011;7846;48.830;9.116;2023-02-28T12:48:46;7.13;;;6.20;;
15488;SDS011;7846;48.830;9.116;2023-02-28T12:51:16;6.60;;;5.97;;
15488;SDS011;7846;48.830;9.116;2023-02-28T12:56:39;6.00;;;5.50;;
15488;SDS011;7846;48.830;9.116;2023-02-28T12:59:13;6.83;;;6.23;;
15488;SDS011;7846;48.830;9.116;2023-02-28T13:01:48;7.97;;;6.37;;
15488;SDS011;7846;48.830;9.116;2023-02-28T13:04:29;6.87;;;6.10;;
15488;SDS011;7846;48.830;9.116;2023-02-28T13:10:12;6.87;;;6.20;;
15488;SDS011;7846;48.830;9.116;2023-02-28T13:12:47;6.90;;;6.30;;
15488;SDS011;7846;48.830;9.116;2023-02-28T13:15:17;6.70;;;6.00;;
15488;SDS011;7846;48.830;9.116;2023-02-28T13:17:50;7.20;;;6.50;;
15488;SDS011;7846;48.830;9.116;2023-02-28T13:20:21;6.73;;;6.13;;
15488;SDS011;7846;48.830;9.116;2023-02-28T13:22:54;7.17;;;6.10;;
15488;SDS011;7846;48.830;9.116;2023-02-28T13:27:47;6.53;;;5.93;;
15488;SDS011;7846;48.830;9.116;2023-02-28T13:35:59;6.60;;;6.10;;
15488;SDS011;7846;48.830;9.116;2023-02-28T13:38:34;6.63;;;6.03;;
15488;SDS011;7846;48.830;9.116;2023-02-28T13:43:59;6.43;;;5.83;;
15488;SDS011;7846;48.830;9.116;2023-02-28T13:46:29;6.43;;;5.83;;
15488;SDS011;7846;48.830;9.116;2023-02-28T13:49:18;6.47;;;5.97;;
15488;SDS011;7846;48.830;9.116;2023-02-28T13:51:51;6.50;;;5.90;;
15488;SDS011;7846;48.830;9.116;2023-02-28T14:02:48;6.83;;;6.17;;
15488;SDS011;7846;48.830;9.116;2023-02-28T14:05:35;6.20;;;5.70;;
15488;SDS011;7846;48.830;9.116;2023-02-28T14:08:06;6.77;;;6.13;;
15488;SDS011;7846;48.830;9.116;2023-02-28T14:10:42;6.53;;;6.03;;
15488;SDS011;7846;48.830;9.116;2023-02-28T14:18:29;7.63;;;6.40;;
15488;SDS011;7846;48.830;9.116;2023-02-28T14:20:58;7.00;;;6.27;;
15488;SDS011;7846;48.830;9.116;2023-02-28T14:23:42;6.73;;;6.13;;
15488;SDS011;7846;48.830;9.116;2023-02-28T14:37:29;6.80;;;6.13;;
15488;SDS011;7846;48.830;9.116;2023-02-28T14:39:58;6.87;;;6.17;;
15488;SDS011;7846;48.830;9.116;2023-02-28T14:42:35;7.27;;;6.67;;
15488;SDS011;7846;48.830;9.116;2023-02-28T14:45:03;6.70;;;6.10;;
15488;SDS011;7846;48.830;9.116;2023-02-28T14:47:32;7.20;;;6.60;;
15488;SDS011;7846;48.830;9.116;2023-02-28T14:50:00;6.70;;;6.20;;
15488;SDS011;7846;48.830;9.116;2023-02-28T14:52:30;6.97;;;6.37;;
15488;SDS011;7846;48.830;9.116;2023-02-28T14:55:01;7.00;;;6.40;;
15488;SDS011;7846;48.830;9.116;2023-02-28T14:57:40;5.93;;;5.43;;
15488;SDS011;7846;48.830;9.116;2023-02-28T15:02:55;7.13;;;6.53;;
15488;SDS011;7846;48.830;9.116;2023-02-28T15:07:49;7.67;;;6.30;;
15488;SDS011;7846;48.830;9.116;2023-02-28T15:10:27;6.67;;;6.07;;
15488;SDS011;7846;48.830;9.116;2023-02-28T15:12:57;7.50;;;6.70;;
15488;SDS011;7846;48.830;9.116;2023-02-28T15:15:49;6.73;;;6.20;;
15488;SDS011;7846;48.830;9.116;2023-02-28T15:18:33;7.43;;;6.70;;
15488;SDS011;7846;48.830;9.116;2023-02-28T15:21:14;6.90;;;6.20;;
15488;SDS011;7846;48.830;9.116;2023-02-28T15:23:45;7.30;;;6.60;;
15488;SDS011;7846;48.830;9.116;2023-02-28T15:26:16;7.30;;;6.70;;
15488;SDS011;7846;48.830;9.116;2023-02-28T15:28:44;6.73;;;6.13;;
15488;SDS011;7846;48.830;9.116;2023-02-28T15:31:29;7.13;;;6.53;;
15488;SDS011;7846;48.830;9.116;2023-02-28T15:34:02;7.03;;;6.43;;
15488;SDS011;7846;48.830;9.116;2023-02-28T15:36:31;7.27;;;6.33;;
15488;SDS011;7846;48.830;9.116;2023-02-28T15:38:58;7.13;;;6.47;;
15488;SDS011;7846;48.830;9.116;2023-02-28T15:46:41;7.40;;;6.70;;
15488;SDS011;7846;48.830;9.116;2023-02-28T15:49:14;7.77;;;7.03;;
15488;SDS011;7846;48.830;9.116;2023-02-28T15:51:44;7.53;;;6.83;;
15488;SDS011;7846;48.830;9.116;2023-02-28T15:54:13;7.93;;;6.70;;
15488;SDS011;7846;48.830;9.116;2023-02-28T15:56:44;8.83;;;7.47;;
15488;SDS011;7846;48.830;9.116;2023-02-28T15:59:15;7.73;;;6.93;;
15488;SDS011;7846;48.830;9.116;2023-02-28T16:01:43;8.00;;;7.20;;
15488;SDS011;7846;48.830;9.116;2023-02-28T16:04:16;7.90;;;6.90;;
15488;SDS011;7846;48.830;9.116;2023-02-28T16:09:39;9.23;;;7.00;;
15488;SDS011;7846;48.830;9.116;2023-02-28T16:12:08;9.40;;;7.00;;
15488;SDS011;7846;48.830;9.116;2023-02-28T16:14:38;7.43;;;6.73;;
15488;SDS011;7846;48.830;9.116;2023-02-28T16:17:04;7.57;;;6.77;;
15488;SDS011;7846;48.830;9.116;2023-02-28T16:19:33;7.27;;;6.60;;
15488;SDS011;7846;48.830;9.116;2023-02-28T16:21:59;7.03;;;6.33;;
15488;SDS011;7846;48.830;9.116;2023-02-28T16:24:24;7.80;;;6.53;;
15488;SDS011;7846;48.830;9.116;2023-02-28T16:26:52;7.10;;;6.30;;
15488;SDS011;7846;48.830;9.116;2023-02-28T16:29:23;7.70;;;6.80;;
15488;SDS011;7846;48.830;9.116;2023-02-28T16:31:51;7.60;;;6.83;;
15488;SDS011;7846;48.830;9.116;2023-02-28T16:34:18;7.13;;;6.53;;
15488;SDS011;7846;48.830;9.116;2023-02-28T16:36:46;7.20;;;6.50;;
15488;SDS011;7846;48.830;9.116;2023-02-28T16:39:12;8.57;;;7.23;;
15488;SDS011;7846;48.830;9.116;2023-02-28T16:41:38;7.43;;;6.73;;
15488;SDS011;7846;48.830;9.116;2023-02-28T16:44:10;7.87;;;6.97;;
15488;SDS011;7846;48.830;9.116;2023-02-28T16:46:39;8.57;;;6.90;;
15488;SDS011;7846;48.830;9.116;2023-02-28T16:49:04;8.10;;;6.80;;
15488;SDS011;7846;48.830;9.116;2023-02-28T16:51:30;8.57;;;7.00;;
15488;SDS011;7846;48.830;9.116;2023-02-28T16:53:55;7.83;;;6.63;;
15488;SDS011;7846;48.830;9.116;2023-02-28T16:56:22;9.70;;;7.23;;
15488;SDS011;7846;48.830;9.116;2023-02-28T16:58:48;7.90;;;7.10;;
15488;SDS011;7846;48.830;9.116;2023-02-28T17:01:14;8.33;;;7.37;;
15488;SDS011;7846;48.830;9.116;2023-02-28T17:03:41;8.47;;;6.83;;
15488;SDS011;7846;48.830;9.116;2023-02-28T17:06:17;10.17;;;7.77;;
15488;SDS011;7846;48.830;9.116;2023-02-28T17:08:46;10.43;;;7.77;;
15488;SDS011;7846;48.830;9.116;2023-02-28T17:11:12;8.60;;;7.40;;
15488;SDS011;7846;48.830;9.116;2023-02-28T17:13:38;9.97;;;7.37;;
15488;SDS011;7846;48.830;9.116;2023-02-28T17:16:04;9.80;;;8.27;;